createdAt,value
2022-08-10T00:01:54.021Z,93.12
2022-08-10T00:04:22.658Z,93.49
2022-08-10T00:06:53.835Z,93.51
2022-08-10T00:09:22.498Z,94.26
2022-08-10T00:11:49.434Z,94.60
2022-08-10T00:14:16.073Z,94.04
2022-08-10T00:16:42.605Z,94.79
2022-08-10T00:19:09.854Z,94.63
2022-08-10T00:21:36.665Z,94.94
2022-08-10T00:24:03.691Z,95.70
2022-08-10T00:27:49.982Z,95.89
2022-08-10T00:29:16.881Z,95.93
2022-08-10T00:31:58.537Z,95.76
2022-08-10T00:34:27.294Z,96.18
2022-08-10T00:36:53.914Z,95.83
2022-08-10T00:39:20.471Z,96.18
2022-08-10T00:41:47.280Z,96.50
2022-08-10T00:44:40.098Z,96.22
2022-08-10T00:47:07.296Z,96.76
2022-08-10T00:49:45.777Z,96.88
2022-08-10T00:52:13.907Z,97.10
2022-08-10T00:54:42.578Z,97.15
2022-08-10T00:57:16.416Z,97.26
2022-08-10T00:59:58.668Z,97.08
2022-08-10T01:02:28.841Z,97.11
2022-08-10T01:05:00.731Z,97.46
2022-08-10T01:07:58.988Z,97.14
2022-08-10T01:10:38.840Z,97.67
2022-08-10T01:13:15.924Z,97.23
2022-08-10T01:16:08.493Z,98.00
2022-08-10T01:18:53.910Z,97.77
2022-08-10T01:21:53.890Z,97.81
2022-08-10T01:24:39.681Z,98.07
2022-08-10T01:27:27.394Z,98.77
2022-08-10T01:30:04.754Z,98.82
2022-08-10T01:32:50.949Z,98.49
2022-08-10T01:35:24.812Z,98.94
2022-08-10T01:38:11.501Z,99.23
2022-08-10T01:40:42.354Z,99.54
2022-08-10T01:43:10.145Z,100.00
2022-08-10T01:45:44.563Z,99.81
2022-08-10T01:48:44.292Z,99.99
2022-08-10T01:51:25.401Z,99.73
2022-08-10T01:54:00.732Z,99.43
2022-08-10T01:56:33.104Z,99.49
2022-08-10T01:59:03.293Z,99.38
2022-08-10T02:01:34.258Z,99.04
2022-08-10T02:04:06.137Z,98.67
2022-08-10T02:06:37.659Z,98.57
2022-08-10T02:09:07.287Z,98.08
2022-08-10T02:12:05.844Z,98.06
2022-08-10T02:14:33.906Z,98.21
2022-08-10T02:17:05.565Z,98.40
2022-08-10T02:19:35.616Z,98.63
2022-08-10T02:22:37.637Z,97.89
2022-08-10T02:24:50.097Z,98.27
2022-08-10T02:27:16.768Z,98.62
2022-08-10T02:29:44.143Z,99.36
2022-08-10T02:32:28.914Z,99.44
2022-08-10T02:35:03.610Z,99.33
2022-08-10T02:37:30.904Z,99.68
2022-08-10T02:39:57.408Z,99.36
2022-08-10T02:45:25.519Z,99.43
2022-08-10T02:45:31.035Z,99.34
2022-08-10T02:48:16.903Z,99.65
2022-08-10T02:50:43.666Z,99.14
2022-08-10T02:53:55.430Z,99.44
2022-08-10T02:56:23.836Z,99.51
2022-08-10T02:58:55.832Z,99.69
2022-08-10T03:01:25.944Z,100.00
2022-08-10T03:04:05.220Z,100.00
2022-08-10T03:06:37.885Z,100.00
2022-08-10T03:09:07.841Z,100.00
2022-08-10T03:12:35.314Z,100.00
2022-08-10T03:14:23.433Z,100.00
2022-08-10T03:16:51.329Z,100.00
2022-08-10T03:20:34.367Z,100.00
2022-08-10T03:22:07.685Z,100.00
2022-08-10T03:24:35.065Z,100.00
2022-08-10T03:27:01.839Z,100.00
2022-08-10T03:29:28.716Z,100.00
2022-08-10T03:31:55.622Z,100.00
2022-08-10T03:34:33.504Z,100.00
2022-08-10T03:37:00.683Z,100.00
2022-08-10T03:39:27.597Z,100.00
2022-08-10T03:41:56.293Z,100.00
2022-08-10T03:44:28.908Z,100.00
2022-08-10T03:46:56.007Z,100.00
2022-08-10T03:49:23.948Z,100.00
2022-08-10T03:51:51.556Z,100.00
2022-08-10T03:54:19.066Z,100.00
2022-08-10T03:56:46.289Z,100.00
2022-08-10T03:59:14.923Z,100.00
2022-08-10T04:02:45.982Z,100.00
2022-08-10T04:04:29.600Z,99.86
2022-08-10T04:06:58.404Z,99.82
2022-08-10T04:09:54.731Z,99.40
2022-08-10T04:12:19.945Z,100.00
2022-08-10T04:14:51.159Z,100.00
2022-08-10T04:18:04.088Z,100.00
2022-08-10T04:20:17.146Z,100.00
2022-08-10T04:22:45.110Z,99.84
2022-08-10T04:25:13.281Z,99.42
2022-08-10T04:27:39.988Z,98.81
2022-08-10T04:30:07.148Z,97.88
2022-08-10T04:32:34.727Z,97.98
2022-08-10T04:35:03.255Z,97.58
2022-08-10T04:37:30.546Z,97.73
2022-08-10T04:39:57.465Z,98.41
2022-08-10T04:42:24.456Z,97.93
2022-08-10T04:44:51.057Z,97.78
2022-08-10T04:47:57.233Z,97.91
2022-08-10T04:50:04.730Z,97.20
2022-08-10T04:52:31.592Z,96.74
2022-08-10T04:54:58.089Z,96.14
2022-08-10T04:57:24.698Z,96.63
2022-08-10T04:59:51.239Z,95.07
2022-08-10T05:02:29.351Z,95.00
2022-08-10T05:04:57.575Z,94.05
2022-08-10T05:07:24.349Z,94.90
2022-08-10T05:10:02.511Z,94.85
2022-08-10T05:12:36.315Z,94.35
2022-08-10T05:15:11.892Z,93.65
2022-08-10T05:17:39.670Z,92.90
2022-08-10T05:20:08.379Z,92.68
2022-08-10T05:22:45.529Z,92.83
2022-08-10T05:25:14.307Z,92.34
2022-08-10T05:27:42.322Z,92.55
2022-08-10T05:30:11.599Z,91.58
2022-08-10T05:32:56.780Z,91.35
2022-08-10T05:35:24.745Z,90.21
2022-08-10T05:38:13.430Z,89.22
2022-08-10T05:40:40.936Z,88.99
2022-08-10T05:43:09.483Z,88.35
2022-08-10T05:46:17.398Z,87.52
2022-08-10T05:48:57.587Z,86.95
2022-08-10T05:51:09.854Z,87.11
2022-08-10T05:54:01.984Z,85.22
2022-08-10T05:56:25.260Z,84.98
2022-08-10T05:58:51.777Z,83.41
2022-08-10T06:01:19.098Z,82.87
2022-08-10T06:03:54.175Z,82.29
2022-08-10T06:06:24.819Z,78.63
2022-08-10T06:08:53.632Z,71.62
2022-08-10T06:12:26.364Z,64.44
2022-08-10T06:14:28.336Z,58.05
2022-08-10T06:16:56.091Z,53.11
2022-08-10T06:19:22.779Z,49.14
2022-08-10T06:22:00.814Z,45.69
2022-08-10T06:24:30.833Z,44.66
2022-08-10T06:26:58.042Z,42.85
2022-08-10T06:29:24.906Z,41.08
2022-08-10T06:31:53.511Z,40.23
2022-08-10T06:34:36.181Z,38.42
2022-08-10T06:37:04.681Z,37.41
2022-08-10T06:39:34.481Z,35.98
2022-08-10T06:42:18.340Z,33.79
2022-08-10T06:44:53.294Z,32.13
2022-08-10T06:47:22.851Z,31.74
2022-08-10T06:49:53.111Z,31.83
2022-08-10T06:52:20.412Z,32.07
2022-08-10T06:54:47.475Z,30.77
2022-08-10T06:57:18.664Z,29.06
2022-08-10T06:59:46.426Z,26.63
2022-08-10T07:02:20.997Z,28.00
2022-08-10T07:04:59.692Z,27.27
2022-08-10T07:07:28.086Z,25.94
2022-08-10T07:09:55.737Z,25.29
2022-08-10T07:12:24.017Z,26.17
2022-08-10T07:14:51.572Z,25.37
2022-08-10T07:17:21.176Z,25.60
2022-08-10T07:19:52.180Z,26.51
2022-08-10T07:23:05.833Z,25.99
2022-08-10T07:25:11.419Z,25.02
2022-08-10T07:27:59.639Z,25.55
2022-08-10T07:30:28.477Z,24.79
2022-08-10T07:32:55.661Z,24.35
2022-08-10T07:35:23.441Z,25.44
2022-08-10T07:37:52.347Z,25.89
2022-08-10T07:40:20.694Z,25.04
2022-08-10T07:42:49.502Z,25.70
2022-08-10T07:45:16.195Z,27.11
2022-08-10T07:48:06.725Z,26.18
2022-08-10T07:50:36.839Z,29.58
2022-08-10T07:53:04.462Z,31.00
2022-08-10T07:56:05.363Z,30.45
2022-08-10T07:58:22.654Z,33.52
2022-08-10T08:00:50.995Z,35.49
2022-08-10T08:03:21.244Z,34.97
2022-08-10T08:05:58.514Z,38.03
2022-08-10T08:08:30.822Z,38.05
2022-08-10T08:10:58.337Z,36.10
2022-08-10T08:13:25.317Z,36.56
2022-08-10T08:16:18.269Z,38.54
2022-08-10T08:18:45.770Z,38.52
2022-08-10T08:24:10.889Z,39.08
2022-08-10T08:24:31.531Z,40.37
2022-08-10T08:27:01.470Z,40.27
2022-08-10T08:29:28.473Z,40.89
2022-08-10T08:32:02.547Z,41.35
2022-08-10T08:34:34.202Z,43.14
2022-08-10T08:37:01.301Z,45.01
2022-08-10T08:39:28.486Z,45.06
2022-08-10T08:42:15.647Z,44.55
2022-08-10T08:45:06.237Z,45.50
2022-08-10T08:48:10.193Z,46.89
2022-08-10T08:50:59.585Z,47.84
2022-08-10T08:54:01.793Z,45.61
2022-08-10T08:56:50.169Z,44.13
2022-08-10T08:59:38.731Z,43.01
2022-08-10T09:02:18.369Z,44.71
2022-08-10T09:05:26.911Z,41.22
2022-08-10T09:08:01.577Z,42.00
2022-08-10T09:10:46.138Z,40.59
2022-08-10T09:13:41.854Z,40.71
2022-08-10T09:16:17.390Z,41.12
2022-08-10T09:19:01.610Z,40.93
2022-08-10T09:22:13.395Z,42.76
2022-08-10T09:24:56.667Z,42.21
2022-08-10T09:27:29.678Z,42.37
2022-08-10T09:30:05.020Z,39.42
2022-08-10T09:36:16.527Z,40.15
2022-08-10T09:36:22.450Z,39.16
2022-08-10T09:39:05.713Z,38.21
2022-08-10T09:41:47.223Z,38.95
2022-08-10T09:44:24.165Z,39.78
2022-08-10T09:47:05.978Z,40.09
2022-08-10T09:50:00.873Z,41.34
2022-08-10T09:52:59.400Z,41.30
2022-08-10T09:56:19.336Z,41.18
2022-08-10T09:59:26.838Z,42.26
2022-08-10T10:02:02.690Z,44.38
2022-08-10T10:04:43.147Z,42.74
2022-08-10T10:07:14.481Z,42.21
2022-08-10T10:10:03.858Z,41.89
2022-08-10T10:12:57.457Z,39.95
2022-08-10T10:15:51.415Z,41.07
2022-08-10T10:18:31.268Z,39.00
2022-08-10T10:21:06.012Z,40.49
2022-08-10T10:24:22.324Z,39.13
2022-08-10T10:27:16.326Z,38.93
2022-08-10T10:30:11.949Z,40.41
2022-08-10T10:32:45.389Z,41.13
2022-08-10T10:35:24.879Z,40.71
2022-08-10T10:38:10.412Z,42.33
2022-08-10T10:41:03.923Z,40.10
2022-08-10T10:43:36.616Z,40.64
2022-08-10T10:46:23.341Z,39.85
2022-08-10T10:49:01.125Z,39.07
2022-08-10T10:51:35.130Z,39.69
2022-08-10T10:54:09.261Z,39.75
2022-08-10T10:56:43.715Z,41.45
2022-08-10T10:59:55.162Z,38.80
2022-08-10T11:02:38.630Z,40.03
2022-08-10T11:05:17.835Z,41.32
2022-08-10T11:07:55.639Z,40.47
2022-08-10T11:10:33.170Z,40.53
2022-08-10T11:14:27.427Z,39.21
2022-08-10T11:16:49.156Z,36.80
2022-08-10T11:19:24.029Z,39.03
2022-08-10T11:22:07.999Z,39.46
2022-08-10T11:24:57.796Z,40.50
2022-08-10T11:27:43.450Z,39.80
2022-08-10T11:30:13.393Z,40.49
2022-08-10T11:32:48.708Z,40.47
2022-08-10T11:35:30.466Z,40.83
2022-08-10T11:38:34.538Z,40.97
2022-08-10T11:42:12.552Z,40.77
2022-08-10T11:44:40.600Z,41.42
2022-08-10T11:47:12.650Z,41.86
2022-08-10T11:49:47.748Z,44.21
2022-08-10T11:52:20.075Z,44.96
2022-08-10T11:54:52.014Z,44.63
2022-08-10T11:57:19.116Z,43.48
2022-08-10T11:59:58.206Z,41.53
2022-08-10T12:02:50.362Z,41.01
2022-08-10T12:05:48.317Z,40.16
2022-08-10T12:10:07.419Z,38.83
2022-08-10T12:11:07.239Z,38.53
2022-08-10T12:13:53.880Z,37.32
2022-08-10T12:16:30.072Z,37.40
2022-08-10T12:19:02.575Z,36.82
2022-08-10T12:21:38.323Z,36.34
2022-08-10T12:24:20.267Z,35.86
2022-08-10T12:27:00.400Z,35.38
2022-08-10T12:29:43.476Z,35.21
2022-08-10T12:32:29.351Z,36.20
2022-08-10T12:35:26.103Z,34.61
2022-08-10T12:38:08.672Z,35.13
2022-08-10T12:40:47.428Z,34.64
2022-08-10T12:44:06.362Z,35.18
2022-08-10T12:46:59.891Z,35.93
2022-08-10T12:49:37.628Z,36.95
2022-08-10T12:52:16.703Z,37.76
2022-08-10T12:54:43.752Z,38.23
2022-08-10T12:57:12.621Z,38.58
2022-08-10T12:59:43.782Z,39.42
2022-08-10T13:02:14.821Z,39.72
2022-08-10T13:04:42.750Z,39.92
2022-08-10T13:07:09.482Z,39.09
2022-08-10T13:09:55.813Z,39.28
2022-08-10T13:12:36.917Z,39.36
2022-08-10T13:15:45.424Z,40.60
2022-08-10T13:18:05.312Z,41.58
2022-08-10T13:20:37.073Z,41.27
2022-08-10T13:23:11.497Z,41.07
2022-08-10T13:25:40.972Z,41.84
2022-08-10T13:28:36.018Z,41.40
2022-08-10T13:30:57.687Z,41.26
2022-08-10T13:34:39.683Z,39.58
2022-08-10T13:36:15.215Z,36.16
2022-08-10T13:38:43.937Z,35.38
2022-08-10T13:41:11.405Z,35.20
2022-08-10T13:43:51.080Z,34.15
2022-08-10T13:46:22.525Z,35.30
2022-08-10T13:48:53.511Z,34.41
2022-08-10T13:51:56.494Z,34.69
2022-08-10T13:54:14.016Z,34.89
2022-08-10T13:56:44.813Z,33.16
2022-08-10T13:59:13.113Z,33.39
2022-08-10T14:01:50.802Z,33.58
2022-08-10T14:04:18.839Z,32.66
2022-08-10T14:06:55.714Z,32.25
2022-08-10T14:09:30.570Z,31.27
2022-08-10T14:11:57.927Z,32.32
2022-08-10T14:14:26.436Z,32.30
2022-08-10T14:16:53.951Z,31.38
2022-08-10T14:19:26.040Z,32.92
2022-08-10T14:21:54.275Z,33.52
2022-08-10T14:24:28.240Z,33.58
2022-08-10T14:27:15.268Z,33.77
2022-08-10T14:29:43.864Z,33.57
2022-08-10T14:32:11.912Z,35.32
2022-08-10T14:34:59.535Z,36.43
2022-08-10T14:37:38.206Z,37.86
2022-08-10T14:40:23.001Z,39.03
2022-08-10T14:42:53.081Z,39.51
2022-08-10T14:45:29.640Z,39.80
2022-08-10T14:48:06.646Z,40.54
2022-08-10T14:50:35.322Z,41.14
2022-08-10T14:53:09.407Z,41.09
2022-08-10T14:55:58.520Z,41.39
2022-08-10T14:58:31.753Z,41.24
2022-08-10T15:00:59.182Z,41.78
2022-08-10T15:04:00.768Z,42.39
2022-08-10T15:06:21.193Z,41.26
2022-08-10T15:09:12.554Z,40.64
2022-08-10T15:12:14.225Z,39.04
2022-08-10T15:14:43.138Z,37.72
2022-08-10T15:17:26.340Z,37.31
2022-08-10T15:20:13.718Z,37.75
2022-08-10T15:22:46.507Z,37.75
2022-08-10T15:25:18.829Z,38.55
2022-08-10T15:27:55.063Z,38.48
2022-08-10T15:30:29.466Z,38.96
2022-08-10T15:33:21.674Z,39.46
2022-08-10T15:36:24.986Z,40.51
2022-08-10T15:39:00.562Z,41.22
2022-08-10T15:41:58.434Z,41.03
2022-08-10T15:44:41.189Z,41.12
2022-08-10T15:47:46.284Z,41.32
2022-08-10T15:50:24.245Z,42.25
2022-08-10T15:53:00.583Z,42.40
2022-08-10T15:55:42.622Z,42.46
2022-08-10T15:58:37.621Z,42.50
2022-08-10T16:02:14.287Z,41.69
2022-08-10T16:04:14.560Z,42.02
2022-08-10T16:06:49.286Z,43.30
2022-08-10T16:10:22.411Z,42.26
2022-08-10T16:12:16.097Z,42.98
2022-08-10T16:14:46.453Z,43.28
2022-08-10T16:17:14.247Z,43.53
2022-08-10T16:19:52.441Z,44.57
2022-08-10T16:22:35.853Z,44.52
2022-08-10T16:25:12.008Z,44.99
2022-08-10T16:27:39.284Z,44.09
2022-08-10T16:30:06.524Z,42.32
2022-08-10T16:32:34.521Z,42.60
2022-08-10T16:35:04.604Z,42.49
2022-08-10T16:37:58.857Z,42.17
2022-08-10T16:40:26.592Z,41.95
2022-08-10T16:42:53.485Z,41.49
2022-08-10T16:45:24.352Z,42.04
2022-08-10T16:47:52.984Z,41.67
2022-08-10T16:50:27.087Z,41.49
2022-08-10T16:52:54.575Z,40.84
2022-08-10T16:55:48.359Z,41.64
2022-08-10T16:58:22.393Z,41.74
2022-08-10T17:00:50.304Z,41.40
2022-08-10T17:03:22.444Z,41.16
2022-08-10T17:06:11.937Z,41.00
2022-08-10T17:08:48.526Z,41.09
2022-08-10T17:11:17.244Z,41.42
2022-08-10T17:13:43.822Z,42.17
2022-08-10T17:16:11.764Z,42.32
2022-08-10T17:18:41.383Z,42.28
2022-08-10T17:21:21.514Z,43.54
2022-08-10T17:23:53.284Z,43.61
2022-08-10T17:26:36.094Z,43.91
2022-08-10T17:29:50.532Z,45.30
2022-08-10T17:32:06.210Z,45.32
2022-08-10T17:34:37.294Z,45.46
2022-08-10T17:37:06.042Z,46.68
2022-08-10T17:39:41.040Z,46.06
2022-08-10T17:42:07.981Z,46.88
2022-08-10T17:44:37.067Z,48.16
2022-08-10T17:47:10.788Z,48.48
2022-08-10T17:49:38.870Z,49.01
2022-08-10T17:52:08.166Z,50.14
2022-08-10T17:54:39.446Z,51.25
2022-08-10T17:57:15.343Z,52.30
2022-08-10T17:59:43.368Z,52.83
2022-08-10T18:02:12.145Z,53.57
2022-08-10T18:04:41.892Z,54.63
2022-08-10T18:07:10.449Z,55.99
2022-08-10T18:09:42.697Z,56.82
2022-08-10T18:12:18.033Z,57.96
2022-08-10T18:14:47.743Z,57.93
2022-08-10T18:17:18.676Z,58.21
2022-08-10T18:19:47.530Z,59.76
2022-08-10T18:22:16.438Z,60.88
2022-08-10T18:24:44.570Z,61.73
2022-08-10T18:27:13.328Z,63.40
2022-08-10T18:29:42.581Z,63.93
2022-08-10T18:32:10.057Z,66.01
2022-08-10T18:34:38.493Z,66.77
2022-08-10T18:37:08.192Z,67.20
2022-08-10T18:39:39.490Z,66.56
2022-08-10T18:42:15.350Z,66.85
2022-08-10T18:44:52.581Z,66.88
2022-08-10T18:47:32.992Z,66.31
2022-08-10T18:50:02.307Z,66.87
2022-08-10T18:52:33.017Z,66.54
2022-08-10T18:55:23.222Z,67.23
2022-08-10T18:58:09.729Z,67.29
2022-08-10T19:00:51.834Z,66.90
2022-08-10T19:03:54.118Z,67.26
2022-08-10T19:06:42.725Z,68.70
2022-08-10T19:09:48.860Z,68.78
2022-08-10T19:12:49.681Z,68.56
2022-08-10T19:15:19.222Z,69.52
2022-08-10T19:18:11.102Z,70.37
2022-08-10T19:21:03.210Z,70.97
2022-08-10T19:23:29.811Z,69.31
2022-08-10T19:26:42.782Z,69.52
2022-08-10T19:29:01.522Z,67.97
2022-08-10T19:31:44.469Z,68.23
2022-08-10T19:34:24.453Z,69.61
2022-08-10T19:37:15.362Z,70.18
2022-08-10T19:39:56.791Z,70.19
2022-08-10T19:42:31.923Z,68.38
2022-08-10T19:45:01.707Z,68.81
2022-08-10T19:47:52.718Z,69.78
2022-08-10T19:50:24.268Z,68.95
2022-08-10T19:53:14.750Z,69.77
2022-08-10T19:55:50.873Z,70.91
2022-08-10T19:58:20.993Z,69.25
2022-08-10T20:01:02.389Z,68.79
2022-08-10T20:03:45.733Z,68.85
2022-08-10T20:06:44.502Z,68.18
2022-08-10T20:09:18.372Z,70.26
2022-08-10T20:12:05.152Z,70.81
2022-08-10T20:14:36.747Z,69.89
2022-08-10T20:17:10.980Z,70.49
2022-08-10T20:20:00.449Z,71.08
2022-08-10T20:22:34.483Z,69.66
2022-08-10T20:25:17.680Z,70.28
2022-08-10T20:28:00.318Z,70.92
2022-08-10T20:30:33.258Z,70.76
2022-08-10T20:33:11.125Z,71.76
2022-08-10T20:36:07.891Z,71.73
2022-08-10T20:38:47.212Z,72.33
2022-08-10T20:41:24.523Z,72.80
2022-08-10T20:44:15.130Z,73.32
2022-08-10T20:46:57.753Z,74.65
2022-08-10T20:49:39.455Z,75.25
2022-08-10T20:52:07.008Z,75.79
2022-08-10T20:54:58.264Z,76.00
2022-08-10T20:58:13.281Z,76.54
2022-08-10T21:00:42.796Z,76.83
2022-08-10T21:03:25.126Z,77.48
2022-08-10T21:06:04.381Z,77.74
2022-08-10T21:08:42.093Z,77.29
2022-08-10T21:11:14.807Z,77.36
2022-08-10T21:14:12.122Z,77.53
2022-08-10T21:17:27.763Z,78.21
2022-08-10T21:22:57.995Z,79.30
2022-08-10T21:25:41.834Z,78.74
2022-08-10T21:25:44.048Z,79.91
2022-08-10T21:28:29.210Z,79.90
2022-08-10T21:31:28.163Z,79.82
2022-08-10T21:34:31.671Z,79.59
2022-08-10T21:37:16.541Z,80.10
2022-08-10T21:40:35.152Z,80.21
2022-08-10T21:43:43.973Z,79.82
2022-08-10T21:46:37.864Z,80.31
2022-08-10T21:49:53.256Z,79.72
2022-08-10T21:52:53.667Z,79.59
2022-08-10T21:55:58.301Z,79.77
2022-08-10T21:58:51.020Z,80.36
2022-08-10T22:01:41.769Z,81.25
2022-08-10T22:04:28.888Z,81.39
2022-08-10T22:07:16.619Z,81.56
2022-08-10T22:10:03.985Z,82.12
2022-08-10T22:12:56.729Z,82.26
2022-08-10T22:16:09.743Z,81.87
2022-08-10T22:19:01.433Z,81.10
2022-08-10T22:22:27.404Z,81.23
2022-08-10T22:25:30.149Z,81.40
2022-08-10T22:28:18.494Z,81.24
2022-08-10T22:31:32.135Z,81.05
2022-08-10T22:34:48.361Z,80.71
2022-08-10T22:37:39.337Z,81.02
2022-08-10T22:40:34.336Z,80.04
2022-08-10T22:43:35.263Z,80.22
2022-08-10T22:46:34.576Z,80.42
2022-08-10T22:49:01.617Z,80.99
2022-08-10T22:51:43.298Z,81.86
2022-08-10T22:54:46.612Z,82.59
2022-08-10T22:57:33.394Z,82.52
2022-08-10T23:00:14.307Z,82.89
2022-08-10T23:02:47.672Z,83.04
2022-08-10T23:05:16.090Z,82.86
2022-08-10T23:07:47.605Z,83.04
2022-08-10T23:10:16.462Z,82.77
2022-08-10T23:13:00.232Z,82.04
2022-08-10T23:15:52.507Z,81.47
2022-08-10T23:18:45.867Z,81.17
2022-08-10T23:21:13.822Z,81.26
2022-08-10T23:23:41.236Z,81.15
2022-08-10T23:26:08.399Z,81.70
2022-08-10T23:29:04.227Z,81.18
2022-08-10T23:32:01.103Z,81.76
2022-08-10T23:34:15.374Z,82.31
2022-08-10T23:36:42.293Z,81.05
2022-08-10T23:39:26.212Z,81.32
2022-08-10T23:41:57.165Z,82.22
2022-08-10T23:44:24.721Z,82.09
2022-08-10T23:46:51.581Z,82.77
2022-08-10T23:49:19.123Z,83.32
2022-08-10T23:51:55.698Z,83.12
2022-08-10T23:54:24.392Z,82.70
2022-08-10T23:56:52.639Z,82.79
2022-08-10T23:59:24.362Z,82.34
